createdAt,value
2022-11-24T00:01:09.314Z,2.78
2022-11-24T00:03:42.591Z,2.03
2022-11-24T00:11:25.955Z,2.10
2022-11-24T00:13:59.701Z,2.10
2022-11-24T00:16:34.998Z,2.38
2022-11-24T00:19:09.683Z,1.80
2022-11-24T00:21:42.204Z,2.53
2022-11-24T00:24:14.759Z,2.45
2022-11-24T00:26:47.297Z,2.30
2022-11-24T00:29:19.983Z,2.28
2022-11-24T00:31:52.576Z,2.60
2022-11-24T00:34:25.107Z,2.10
2022-11-24T00:36:57.619Z,1.98
2022-11-24T00:39:30.145Z,2.13
2022-11-24T00:42:02.658Z,2.05
2022-11-24T00:44:35.298Z,2.05
2022-11-24T00:47:08.163Z,2.17
2022-11-24T00:49:40.719Z,2.38
2022-11-24T00:52:13.353Z,2.20
2022-11-24T00:54:45.820Z,2.15
2022-11-24T00:57:18.400Z,1.80
2022-11-24T00:59:50.929Z,1.73
2022-11-24T01:02:23.600Z,2.33
2022-11-24T01:04:56.254Z,2.00
2022-11-24T01:07:28.774Z,2.13
2022-11-24T01:10:01.494Z,2.00
2022-11-24T01:12:35.516Z,2.03
2022-11-24T01:15:09.389Z,1.85
2022-11-24T01:17:41.867Z,1.75
2022-11-24T01:20:14.836Z,2.10
2022-11-24T01:22:49.242Z,1.80
2022-11-24T01:25:21.782Z,1.90
2022-11-24T01:27:54.260Z,2.00
2022-11-24T01:30:26.820Z,1.48
2022-11-24T01:32:59.364Z,1.75
2022-11-24T01:35:32.000Z,1.90
2022-11-24T01:38:04.581Z,2.10
2022-11-24T01:40:37.211Z,1.77
2022-11-24T01:43:22.093Z,1.90
2022-11-24T01:45:56.238Z,1.92
2022-11-24T01:48:35.192Z,1.88
2022-11-24T01:51:28.987Z,1.50
2022-11-24T01:56:41.003Z,1.40
2022-11-24T01:59:15.508Z,1.48
2022-11-24T02:01:51.829Z,1.50
2022-11-24T02:04:28.774Z,1.52
2022-11-24T02:07:03.754Z,1.50
2022-11-24T02:10:04.346Z,1.48
2022-11-24T02:12:39.172Z,1.75
2022-11-24T02:15:14.637Z,1.55
2022-11-24T02:17:47.153Z,1.45
2022-11-24T02:20:19.923Z,1.38
2022-11-24T02:23:04.705Z,1.60
2022-11-24T02:25:48.814Z,1.52
2022-11-24T02:28:23.782Z,1.75
2022-11-24T02:30:56.820Z,1.48
2022-11-24T02:33:30.283Z,1.50
2022-11-24T02:36:02.897Z,1.70
2022-11-24T02:38:36.213Z,1.85
2022-11-24T02:41:15.387Z,1.70
2022-11-24T02:43:55.393Z,1.50
2022-11-24T02:46:28.341Z,1.58
2022-11-24T02:49:00.847Z,1.48
2022-11-24T02:51:34.721Z,1.40
2022-11-24T02:54:07.181Z,1.30
2022-11-24T02:56:39.738Z,1.38
2022-11-24T02:59:12.310Z,1.42
2022-11-24T03:01:44.852Z,1.63
2022-11-24T03:04:17.435Z,1.60
2022-11-24T03:06:50.070Z,1.55
2022-11-24T03:09:22.599Z,1.52
2022-11-24T03:11:55.144Z,1.40
2022-11-24T03:14:27.786Z,1.40
2022-11-24T03:17:00.445Z,1.38
2022-11-24T03:19:33.382Z,1.50
2022-11-24T03:22:05.943Z,1.05
2022-11-24T03:24:38.527Z,1.60
2022-11-24T03:27:11.168Z,1.50
2022-11-24T03:29:43.575Z,1.48
2022-11-24T03:32:16.102Z,1.60
2022-11-24T03:34:48.622Z,1.73
2022-11-24T03:37:21.285Z,1.30
2022-11-24T03:39:53.727Z,1.75
2022-11-24T03:42:26.226Z,1.60
2022-11-24T03:45:04.257Z,1.65
2022-11-24T03:47:52.599Z,1.70
2022-11-24T03:50:25.211Z,2.30
2022-11-24T03:52:57.956Z,2.65
2022-11-24T03:55:30.438Z,2.22
2022-11-24T03:58:02.953Z,2.63
2022-11-24T04:00:35.483Z,2.67
2022-11-24T04:03:08.049Z,2.42
2022-11-24T04:05:40.643Z,2.38
2022-11-24T04:08:13.516Z,2.15
2022-11-24T04:10:49.471Z,2.50
2022-11-24T04:13:24.774Z,1.70
2022-11-24T04:15:57.363Z,2.10
2022-11-24T04:18:29.900Z,1.95
2022-11-24T04:21:02.435Z,2.03
2022-11-24T04:23:34.868Z,2.03
2022-11-24T04:26:08.188Z,1.90
2022-11-24T04:28:40.675Z,1.65
2022-11-24T04:31:13.188Z,2.10
2022-11-24T04:33:45.794Z,1.85
2022-11-24T04:36:18.260Z,1.55
2022-11-24T04:39:20.140Z,1.75
2022-11-24T04:41:48.469Z,1.60
2022-11-24T04:44:21.032Z,1.77
2022-11-24T04:46:53.683Z,1.98
2022-11-24T04:49:26.309Z,2.42
2022-11-24T04:51:59.464Z,2.00
2022-11-24T04:57:05.048Z,1.55
2022-11-24T04:59:37.569Z,2.00
2022-11-24T05:02:10.735Z,1.23
2022-11-24T05:07:19.173Z,1.58
2022-11-24T05:10:10.207Z,1.85
2022-11-24T05:12:47.054Z,1.92
2022-11-24T05:15:22.577Z,1.95
2022-11-24T05:17:55.602Z,1.48
2022-11-24T05:20:28.117Z,1.85
2022-11-24T05:23:05.330Z,1.50
2022-11-24T05:25:37.840Z,1.40
2022-11-24T05:28:10.800Z,1.85
2022-11-24T05:30:44.202Z,1.63
2022-11-24T05:33:20.919Z,1.88
2022-11-24T05:35:53.544Z,2.03
2022-11-24T05:38:26.834Z,2.13
2022-11-24T05:43:37.886Z,1.90
2022-11-24T05:46:10.355Z,1.95
2022-11-24T05:48:42.899Z,2.15
2022-11-24T05:51:15.382Z,2.47
2022-11-24T05:53:47.982Z,1.95
2022-11-24T05:56:20.622Z,2.65
2022-11-24T05:58:53.192Z,2.58
2022-11-24T06:01:25.666Z,2.45
2022-11-24T06:03:58.121Z,2.30
2022-11-24T06:06:30.730Z,2.92
2022-11-24T06:09:03.310Z,3.67
2022-11-24T06:11:35.911Z,3.10
2022-11-24T06:14:11.363Z,3.20
2022-11-24T06:19:51.933Z,2.72
2022-11-24T06:22:24.402Z,2.72
2022-11-24T06:24:56.970Z,2.72
2022-11-24T06:27:29.561Z,3.22
2022-11-24T06:30:02.175Z,3.53
2022-11-24T06:32:34.903Z,3.58
2022-11-24T06:35:07.931Z,3.40
2022-11-24T06:37:41.161Z,3.70
2022-11-24T06:42:51.616Z,2.92
2022-11-24T06:45:24.160Z,2.67
2022-11-24T06:47:56.854Z,2.85
2022-11-24T06:50:33.588Z,2.92
2022-11-24T06:53:08.091Z,2.22
2022-11-24T06:55:41.192Z,2.30
2022-11-24T06:58:13.613Z,2.58
2022-11-24T07:00:46.208Z,2.45
2022-11-24T07:03:19.863Z,2.35
2022-11-24T07:05:59.127Z,2.00
2022-11-24T07:08:31.764Z,1.88
2022-11-24T07:11:08.639Z,1.98
2022-11-24T07:13:41.308Z,1.70
2022-11-24T07:16:24.528Z,2.40
2022-11-24T07:21:31.035Z,2.20
2022-11-24T07:24:03.676Z,2.42
2022-11-24T07:26:37.698Z,2.40
2022-11-24T07:29:10.303Z,2.40
2022-11-24T07:31:43.094Z,2.20
2022-11-24T07:34:15.821Z,2.67
2022-11-24T07:36:48.350Z,2.45
2022-11-24T07:39:20.934Z,1.70
2022-11-24T07:41:53.510Z,1.95
2022-11-24T07:44:26.174Z,2.58
2022-11-24T07:46:58.601Z,2.75
2022-11-24T07:49:31.103Z,2.17
2022-11-24T07:52:04.723Z,2.70
2022-11-24T07:54:37.254Z,2.33
2022-11-24T07:57:09.942Z,2.60
2022-11-24T07:59:42.454Z,2.53
2022-11-24T08:02:15.038Z,2.22
2022-11-24T08:04:47.753Z,2.13
2022-11-24T08:07:20.283Z,2.25
2022-11-24T08:09:52.756Z,2.22
2022-11-24T08:12:25.320Z,2.40
2022-11-24T08:14:57.770Z,1.85
2022-11-24T08:17:30.502Z,2.33
2022-11-24T08:20:03.086Z,1.98
2022-11-24T08:22:35.617Z,3.17
2022-11-24T08:25:08.612Z,2.60
2022-11-24T08:30:14.216Z,2.67
2022-11-24T08:35:19.166Z,2.10
2022-11-24T08:37:51.718Z,2.05
2022-11-24T08:40:24.399Z,1.75
2022-11-24T08:43:01.212Z,2.35
2022-11-24T08:45:38.235Z,2.20
2022-11-24T08:48:13.580Z,1.60
2022-11-24T08:50:46.149Z,1.50
2022-11-24T08:53:19.466Z,1.20
2022-11-24T08:55:52.111Z,1.15
2022-11-24T08:58:24.738Z,1.52
2022-11-24T09:01:10.582Z,1.33
2022-11-24T09:03:49.994Z,1.50
2022-11-24T09:06:26.296Z,0.90
2022-11-24T09:08:59.706Z,1.73
2022-11-24T09:11:34.346Z,1.50
2022-11-24T09:14:06.899Z,1.95
2022-11-24T09:16:39.559Z,1.75
2022-11-24T09:19:12.062Z,2.30
2022-11-24T09:21:44.517Z,2.28
2022-11-24T09:24:17.204Z,2.10
2022-11-24T09:26:49.908Z,1.95
2022-11-24T09:29:23.052Z,1.80
2022-11-24T09:31:55.688Z,2.47
2022-11-24T09:34:28.822Z,1.75
2022-11-24T09:37:01.934Z,2.10
2022-11-24T09:42:48.087Z,1.60
2022-11-24T09:46:04.580Z,1.77
2022-11-24T09:48:42.061Z,1.60
2022-11-24T09:51:16.002Z,1.40
2022-11-24T09:54:11.191Z,1.40
2022-11-24T09:56:44.253Z,1.48
2022-11-24T10:01:56.892Z,1.30
2022-11-24T10:04:39.703Z,1.42
2022-11-24T10:07:15.133Z,2.05
2022-11-24T10:10:02.255Z,1.20
2022-11-24T10:13:07.207Z,1.55
2022-11-24T10:15:43.091Z,1.42
2022-11-24T10:19:00.293Z,1.52
2022-11-24T10:22:08.584Z,1.77
2022-11-24T10:25:01.615Z,1.63
2022-11-24T10:27:55.221Z,1.48
2022-11-24T10:30:28.147Z,1.50
2022-11-24T10:33:13.345Z,1.50
2022-11-24T10:36:12.165Z,1.73
2022-11-24T10:39:05.557Z,1.60
2022-11-24T10:41:50.397Z,1.63
2022-11-24T10:44:22.990Z,1.63
2022-11-24T10:46:55.651Z,1.95
2022-11-24T10:49:32.704Z,1.50
2022-11-24T10:52:14.221Z,1.50
2022-11-24T10:54:56.741Z,1.63
2022-11-24T10:57:38.285Z,1.50
2022-11-24T11:00:20.007Z,1.48
2022-11-24T11:03:30.912Z,1.60
2022-11-24T11:06:11.929Z,1.35
2022-11-24T11:08:44.448Z,2.17
2022-11-24T11:11:29.964Z,1.50
2022-11-24T11:14:05.585Z,1.30
2022-11-24T11:17:25.905Z,1.73
2022-11-24T11:20:03.630Z,1.67
2022-11-24T11:22:38.689Z,1.55
2022-11-24T11:25:11.143Z,1.55
2022-11-24T11:27:43.769Z,1.35
2022-11-24T11:36:25.515Z,1.25
2022-11-24T11:38:58.869Z,1.10
2022-11-24T11:41:35.735Z,1.15
2022-11-24T11:44:32.671Z,1.23
2022-11-24T11:47:45.720Z,1.00
2022-11-24T11:51:14.816Z,0.80
2022-11-24T11:53:48.595Z,0.60
2022-11-24T11:56:23.857Z,1.20
2022-11-24T11:58:56.378Z,1.15
2022-11-24T12:01:43.908Z,1.42
2022-11-24T12:04:35.532Z,0.80
2022-11-24T12:07:23.176Z,1.15
2022-11-24T12:10:28.760Z,0.98
2022-11-24T12:13:17.400Z,1.23
2022-11-24T12:15:59.290Z,1.05
2022-11-24T12:21:32.918Z,0.90
2022-11-24T12:24:15.300Z,0.85
2022-11-24T12:27:22.254Z,0.90
2022-11-24T12:30:12.118Z,1.25
2022-11-24T12:33:03.297Z,1.08
2022-11-24T12:35:35.830Z,0.88
2022-11-24T12:38:28.862Z,1.50
2022-11-24T12:41:42.214Z,0.95
2022-11-24T12:45:00.112Z,0.93
2022-11-24T12:47:55.347Z,1.00
2022-11-24T12:50:30.029Z,1.10
2022-11-24T12:53:25.796Z,0.90
2022-11-24T12:56:13.316Z,1.10
2022-11-24T12:59:10.225Z,1.20
2022-11-24T13:02:24.006Z,0.95
2022-11-24T13:05:13.883Z,1.20
2022-11-24T13:07:58.109Z,1.40
2022-11-24T13:10:54.934Z,1.10
2022-11-24T13:14:01.737Z,0.80
2022-11-24T13:16:41.114Z,1.95
2022-11-24T13:19:36.776Z,0.98
2022-11-24T13:24:45.051Z,0.98
2022-11-24T13:27:19.109Z,1.13
2022-11-24T13:29:53.051Z,1.10
2022-11-24T13:32:45.869Z,0.80
2022-11-24T13:35:18.810Z,1.20
2022-11-24T13:37:53.030Z,1.10
2022-11-24T13:40:31.377Z,1.00
2022-11-24T13:43:03.820Z,0.80
2022-11-24T13:45:42.742Z,2.90
2022-11-24T13:48:22.002Z,0.95
2022-11-24T13:51:01.867Z,1.00
2022-11-24T13:53:48.024Z,0.90
2022-11-24T13:56:26.626Z,1.02
2022-11-24T13:59:17.315Z,0.77
2022-11-24T14:01:57.841Z,0.90
2022-11-24T14:04:32.642Z,1.05
2022-11-24T14:07:10.344Z,0.80
2022-11-24T14:09:45.976Z,1.30
2022-11-24T14:12:23.951Z,0.85
2022-11-24T14:15:25.677Z,1.35
2022-11-24T14:17:58.200Z,1.00
2022-11-24T14:20:30.793Z,0.93
2022-11-24T14:23:04.377Z,1.05
2022-11-24T14:25:37.074Z,1.30
2022-11-24T14:28:28.129Z,1.00
2022-11-24T14:31:33.997Z,3.08
2022-11-24T14:34:12.686Z,1.33
2022-11-24T14:36:45.367Z,0.98
2022-11-24T14:39:20.408Z,1.27
2022-11-24T14:42:08.231Z,1.00
2022-11-24T14:45:04.055Z,1.25
2022-11-24T14:47:45.748Z,1.17
2022-11-24T14:50:22.470Z,3.33
2022-11-24T14:52:57.280Z,0.90
2022-11-24T14:55:39.415Z,1.85
2022-11-24T14:58:30.542Z,1.55
2022-11-24T15:01:23.082Z,1.00
2022-11-24T15:04:32.323Z,1.10
2022-11-24T15:07:13.528Z,0.80
2022-11-24T15:09:49.186Z,1.05
2022-11-24T15:12:29.321Z,1.17
2022-11-24T15:15:15.910Z,1.20
2022-11-24T15:17:54.776Z,1.05
2022-11-24T15:20:37.961Z,1.48
2022-11-24T15:23:28.831Z,0.98
2022-11-24T15:26:04.196Z,1.17
2022-11-24T15:28:36.731Z,1.23
2022-11-24T15:31:14.208Z,1.63
2022-11-24T15:33:46.815Z,1.38
2022-11-24T15:36:21.031Z,1.10
2022-11-24T15:38:53.512Z,1.10
2022-11-24T15:41:31.578Z,1.15
2022-11-24T15:44:04.162Z,2.00
2022-11-24T15:46:38.896Z,1.17
2022-11-24T15:49:11.372Z,1.15
2022-11-24T15:51:46.034Z,1.30
2022-11-24T15:54:19.448Z,1.67
2022-11-24T15:56:52.136Z,2.15
2022-11-24T15:59:24.703Z,2.13
2022-11-24T16:01:57.300Z,1.58
2022-11-24T16:04:30.009Z,1.20
2022-11-24T16:07:04.046Z,1.65
2022-11-24T16:09:36.551Z,1.75
2022-11-24T16:12:09.686Z,1.50
2022-11-24T16:17:14.538Z,1.52
2022-11-24T16:19:59.784Z,2.20
2022-11-24T16:22:36.047Z,1.27
2022-11-24T16:25:09.332Z,1.60
2022-11-24T16:27:42.221Z,1.63
2022-11-24T16:30:15.338Z,1.40
2022-11-24T16:35:20.438Z,1.52
2022-11-24T16:37:53.027Z,1.77
2022-11-24T16:40:25.534Z,1.45
2022-11-24T16:42:59.023Z,1.30
2022-11-24T16:45:31.805Z,1.25
2022-11-24T16:48:04.613Z,1.35
2022-11-24T16:50:38.232Z,1.35
2022-11-24T16:53:10.719Z,1.30
2022-11-24T16:55:43.229Z,2.08
2022-11-24T16:58:15.797Z,1.98
2022-11-24T17:00:48.406Z,1.30
2022-11-24T17:03:20.946Z,1.50
2022-11-24T17:06:01.011Z,1.77
2022-11-24T17:08:35.503Z,1.60
2022-11-24T17:11:10.041Z,1.70
2022-11-24T17:13:43.470Z,1.17
2022-11-24T17:16:21.841Z,1.80
2022-11-24T17:18:54.830Z,1.45
2022-11-24T17:21:28.068Z,1.45
2022-11-24T17:26:35.490Z,1.25
2022-11-24T17:29:08.580Z,1.70
2022-11-24T17:34:13.807Z,2.35
2022-11-24T17:36:46.451Z,1.90
2022-11-24T17:39:23.372Z,2.13
2022-11-24T17:41:57.492Z,1.77
2022-11-24T17:44:30.052Z,2.83
2022-11-24T17:47:02.772Z,2.08
2022-11-24T17:49:35.286Z,2.38
2022-11-24T17:52:07.820Z,2.70
2022-11-24T17:54:46.371Z,2.70
2022-11-24T17:57:19.294Z,2.10
2022-11-24T17:59:52.025Z,2.47
2022-11-24T18:02:24.586Z,2.42
2022-11-24T18:04:57.152Z,2.40
2022-11-24T18:07:29.755Z,2.38
2022-11-24T18:10:02.279Z,3.25
2022-11-24T18:12:34.970Z,2.58
2022-11-24T18:15:08.144Z,2.60
2022-11-24T18:20:13.300Z,2.13
2022-11-24T18:25:38.447Z,2.00
2022-11-24T18:28:10.949Z,2.15
2022-11-24T18:30:43.399Z,6.25
2022-11-24T18:33:16.930Z,3.08
2022-11-24T18:36:00.580Z,2.08
2022-11-24T18:38:36.146Z,2.05
2022-11-24T18:41:09.151Z,2.03
2022-11-24T18:43:42.343Z,2.88
2022-11-24T18:48:53.985Z,1.70
2022-11-24T18:51:27.426Z,1.70
2022-11-24T18:54:00.295Z,2.15
2022-11-24T18:56:33.006Z,2.88
2022-11-24T18:59:05.617Z,2.88
2022-11-24T19:01:38.324Z,2.90
2022-11-24T19:04:10.852Z,2.90
2022-11-24T19:06:43.403Z,3.33
2022-11-24T19:09:18.681Z,2.33
2022-11-24T19:11:51.281Z,2.72
2022-11-24T19:14:23.837Z,2.50
2022-11-24T19:16:56.462Z,2.60
2022-11-24T19:19:31.287Z,3.00
2022-11-24T19:22:04.388Z,3.53
2022-11-24T19:24:37.088Z,3.58
2022-11-24T19:27:10.974Z,3.40
2022-11-24T19:29:43.634Z,2.92
2022-11-24T19:32:19.385Z,3.70
2022-11-24T19:34:51.948Z,3.80
2022-11-24T19:37:24.529Z,2.50
2022-11-24T19:39:57.084Z,3.25
2022-11-24T19:42:29.620Z,2.72
2022-11-24T19:45:02.276Z,2.33
2022-11-24T19:47:35.109Z,2.95
2022-11-24T19:50:10.518Z,2.85
2022-11-24T19:52:43.180Z,2.70
2022-11-24T19:55:15.749Z,2.70
2022-11-24T19:57:48.354Z,3.17
2022-11-24T20:00:21.134Z,2.92
2022-11-24T20:02:53.662Z,3.05
2022-11-24T20:05:26.231Z,4.20
2022-11-24T20:07:58.864Z,3.55
2022-11-24T20:10:31.901Z,2.88
2022-11-24T20:15:36.902Z,3.55
2022-11-24T20:18:09.481Z,3.83
2022-11-24T20:20:41.960Z,3.60
2022-11-24T20:23:14.597Z,3.72
2022-11-24T20:25:47.065Z,4.35
2022-11-24T20:28:19.615Z,4.82
2022-11-24T20:30:52.175Z,3.90
2022-11-24T20:33:24.792Z,4.90
2022-11-24T20:36:05.547Z,4.25
2022-11-24T20:38:39.146Z,4.35
2022-11-24T20:41:14.354Z,4.90
2022-11-24T20:43:48.259Z,4.57
2022-11-24T20:46:23.854Z,4.30
2022-11-24T20:48:58.169Z,4.38
2022-11-24T20:51:36.840Z,4.28
2022-11-24T20:54:10.841Z,3.60
2022-11-24T20:56:44.782Z,3.53
2022-11-24T20:59:23.695Z,3.72
2022-11-24T21:01:56.408Z,3.85
2022-11-24T21:04:28.858Z,3.75
2022-11-24T21:07:01.522Z,4.25
2022-11-24T21:09:34.102Z,4.25
2022-11-24T21:12:07.045Z,3.95
2022-11-24T21:14:39.985Z,3.55
2022-11-24T21:19:47.082Z,4.00
2022-11-24T21:22:19.595Z,4.32
2022-11-24T21:24:52.264Z,4.00
2022-11-24T21:27:24.753Z,4.28
2022-11-24T21:29:57.236Z,4.15
2022-11-24T21:32:29.803Z,4.68
2022-11-24T21:35:02.298Z,4.32
2022-11-24T21:37:34.891Z,4.55
2022-11-24T21:40:08.182Z,4.20
2022-11-24T21:42:41.176Z,4.47
2022-11-24T21:45:13.704Z,4.88
2022-11-24T21:47:47.488Z,4.40
2022-11-24T21:50:20.007Z,5.07
2022-11-24T21:52:52.712Z,4.65
2022-11-24T21:55:25.294Z,4.80
2022-11-24T21:57:58.145Z,4.35
2022-11-24T22:00:30.656Z,3.80
2022-11-24T22:03:03.167Z,4.53
2022-11-24T22:05:35.715Z,4.50
2022-11-24T22:08:08.219Z,3.63
2022-11-24T22:10:40.890Z,4.00
2022-11-24T22:13:13.505Z,3.70
2022-11-24T22:15:46.374Z,3.67
2022-11-24T22:18:18.875Z,3.85
2022-11-24T22:20:56.264Z,4.20
2022-11-24T22:23:30.048Z,3.58
2022-11-24T22:26:15.521Z,3.95
2022-11-24T22:28:48.792Z,3.42
2022-11-24T22:31:25.723Z,3.75
2022-11-24T22:33:59.451Z,3.83
2022-11-24T22:36:31.985Z,4.03
2022-11-24T22:39:06.570Z,3.97
2022-11-24T22:41:39.085Z,3.78
2022-11-24T22:44:11.643Z,4.15
2022-11-24T22:47:13.752Z,3.80
2022-11-24T22:50:14.290Z,3.97
2022-11-24T22:52:54.874Z,3.78
2022-11-24T22:55:27.657Z,3.78
2022-11-24T22:58:00.105Z,4.00
2022-11-24T23:00:32.710Z,3.85
2022-11-24T23:03:07.737Z,4.10
2022-11-24T23:05:40.352Z,3.67
2022-11-24T23:08:13.141Z,3.30
2022-11-24T23:10:45.716Z,3.67
2022-11-24T23:13:18.270Z,3.75
2022-11-24T23:15:50.836Z,3.78
2022-11-24T23:18:23.344Z,5.50
2022-11-24T23:20:55.978Z,3.65
2022-11-24T23:23:28.603Z,3.95
2022-11-24T23:26:12.471Z,14.10
2022-11-24T23:28:45.057Z,7.05
2022-11-24T23:31:21.824Z,3.50
2022-11-24T23:33:55.002Z,3.63
2022-11-24T23:39:09.056Z,3.73
2022-11-24T23:41:41.760Z,3.90
2022-11-24T23:44:14.308Z,3.53
2022-11-24T23:46:46.899Z,3.22
2022-11-24T23:49:19.484Z,2.97
2022-11-24T23:51:52.033Z,3.00
2022-11-24T23:54:24.623Z,3.55
2022-11-24T23:56:57.184Z,3.00
2022-11-24T23:59:29.672Z,2.90
